Time;durP1;ratioP1;P1;durP2;ratioP2;P2;SDS_P1;SDS_P2;PMS_P1;PMS_P2;Temp;Humidity;BMP_temperature;BMP_pressure;BME280_temperature;BME280_humidity;BME280_pressure;Samples;Min_cycle;Max_cycle;Signal;HPM_P1;HPM_P2
2021/03/11 00:02:25;;;;;;;14.05;2.00;;;18.60;33.60;;;;;;5040383;28;20093;-65
2021/03/11 00:04:52;;;;;;;20.60;2.72;;;18.60;34.20;;;;;;5038521;28;20074;-63
2021/03/11 00:07:18;;;;;;;15.55;2.05;;;18.60;34.30;;;;;;5037716;28;20514;-65
2021/03/11 00:09:45;;;;;;;17.10;2.08;;;18.50;34.40;;;;;;5035389;28;20152;-64
2021/03/11 00:12:12;;;;;;;15.55;3.15;;;18.50;34.70;;;;;;5039322;28;20095;-61
2021/03/11 00:14:38;;;;;;;15.80;1.85;;;18.30;34.70;;;;;;5040416;28;20072;-64
2021/03/11 00:17:06;;;;;;;12.15;2.17;;;18.10;35.10;;;;;;5038401;28;20074;-64
2021/03/11 00:19:34;;;;;;;10.60;1.80;;;17.90;35.40;;;;;;5039055;28;20157;-64
2021/03/11 00:22:01;;;;;;;14.15;1.80;;;17.90;35.80;;;;;;5039429;28;20109;-64
2021/03/11 00:24:28;;;;;;;14.65;1.80;;;18.00;36.10;;;;;;5037658;28;20549;-63
2021/03/11 00:26:55;;;;;;;14.30;2.03;;;17.80;36.20;;;;;;5039057;28;20081;-64
2021/03/11 00:29:21;;;;;;;16.63;1.52;;;17.70;36.60;;;;;;5038941;28;20164;-63
2021/03/11 00:31:48;;;;;;;;;;;17.60;37.20;;;;;;5032651;28;20106;-63
2021/03/11 00:34:14;;;;;;;8.68;1.30;;;17.40;37.30;;;;;;5040180;28;20019;-64
2021/03/11 00:36:41;;;;;;;17.38;2.05;;;17.40;37.90;;;;;;5039298;28;20074;-63
2021/03/11 00:39:07;;;;;;;;;;;17.30;38.50;;;;;;5040267;28;20077;-62
2021/03/11 00:41:35;;;;;;;15.75;1.90;;;17.20;38.80;;;;;;5036395;28;20384;-62
2021/03/11 00:44:02;;;;;;;17.05;2.75;;;17.20;39.30;;;;;;5038427;28;20070;-62
2021/03/11 00:46:28;;;;;;;16.90;1.70;;;17.20;39.10;;;;;;5035663;28;20180;-62
2021/03/11 00:48:54;;;;;;;;;;;17.10;38.90;;;;;;5037986;28;20200;-62
2021/03/11 00:51:21;;;;;;;15.18;2.22;;;17.30;39.10;;;;;;5040439;28;20000;-63
2021/03/11 00:53:47;;;;;;;;;;;17.20;39.30;;;;;;5039029;28;20578;-64
2021/03/11 00:56:14;;;;;;;9.85;2.05;;;17.20;39.30;;;;;;5039113;28;19961;-63
2021/03/11 00:58:40;;;;;;;;;;;17.20;39.30;;;;;;5040417;28;20074;-66
2021/03/11 01:01:07;;;;;;;12.52;1.52;;;17.20;39.40;;;;;;5037596;28;20078;-63
2021/03/11 01:03:33;;;;;;;9.48;1.80;;;17.20;39.60;;;;;;5037124;28;20092;-64
2021/03/11 01:06:00;;;;;;;9.25;1.77;;;17.00;40.00;;;;;;5036696;28;20561;-63
2021/03/11 01:08:26;;;;;;;;;;;16.80;40.40;;;;;;5039164;28;20074;-62
2021/03/11 01:10:53;;;;;;;8.23;1.23;;;16.80;40.60;;;;;;5039043;28;19960;-61
2021/03/11 01:13:23;;;;;;;5.72;1.50;;;16.80;40.60;;;;;;5036301;28;20536;-62
2021/03/11 01:15:49;;;;;;;11.05;1.65;;;16.60;40.80;;;;;;5037436;28;20446;-61
2021/03/11 01:18:16;;;;;;;5.60;1.58;;;16.60;40.90;;;;;;5040254;28;20506;-63
2021/03/11 01:20:43;;;;;;;6.35;1.42;;;16.50;40.90;;;;;;5039765;28;20089;-61
2021/03/11 01:23:10;;;;;;;7.03;1.35;;;16.40;41.20;;;;;;5039612;28;20073;-59
2021/03/11 01:25:37;;;;;;;5.72;1.45;;;16.40;41.20;;;;;;5036608;28;20569;-62
2021/03/11 01:28:04;;;;;;;8.18;1.75;;;16.30;41.30;;;;;;5034194;28;20097;-62
2021/03/11 01:30:30;;;;;;;9.20;1.60;;;16.30;41.50;;;;;;5037214;28;20074;-62
2021/03/11 01:32:56;;;;;;;;;;;16.30;41.60;;;;;;5034627;28;20070;-63
2021/03/11 01:35:23;;;;;;;10.68;1.83;;;16.30;41.70;;;;;;5033098;28;19964;-60
2021/03/11 01:37:49;;;;;;;;;;;16.20;41.80;;;;;;5035854;28;20165;-63
2021/03/11 01:40:16;;;;;;;12.25;1.88;;;16.10;41.90;;;;;;5033904;28;19965;-63
2021/03/11 01:42:42;;;;;;;7.90;2.13;;;16.10;42.00;;;;;;5035834;28;20446;-64
2021/03/11 01:45:09;;;;;;;;;;;16.10;42.20;;;;;;5036410;28;20174;-63
2021/03/11 01:47:36;;;;;;;17.20;2.47;;;16.10;42.10;;;;;;5035912;28;19964;-64
2021/03/11 01:50:05;;;;;;;10.50;2.35;;;16.10;41.80;;;;;;5039111;28;20082;-63
2021/03/11 01:52:34;;;;;;;6.95;2.05;;;16.00;41.80;;;;;;5040877;28;20197;-63
2021/03/11 01:55:01;;;;;;;12.18;1.92;;;16.10;42.00;;;;;;5036422;28;20116;-62
2021/03/11 01:57:29;;;;;;;9.57;2.15;;;16.00;42.20;;;;;;5038234;28;20082;-61
2021/03/11 01:59:56;;;;;;;13.77;2.20;;;16.00;42.40;;;;;;5034812;28;20091;-62
2021/03/11 02:02:22;;;;;;;12.90;2.40;;;16.00;42.10;;;;;;5037281;28;20185;-65
2021/03/11 02:04:49;;;;;;;13.15;2.20;;;16.00;42.00;;;;;;5040911;28;20067;-62
2021/03/11 02:07:15;;;;;;;;;;;16.00;41.60;;;;;;5040307;28;20124;-59
2021/03/11 02:09:42;;;;;;;8.27;2.30;;;16.00;41.70;;;;;;5034269;28;20414;-63
2021/03/11 02:12:21;;;;;;;;;;;15.90;41.60;;;;;;5040032;28;20080;-62
2021/03/11 02:14:59;;;;;;;11.50;2.38;;;15.90;41.40;;;;;;5041032;28;20012;-64
2021/03/11 02:17:37;;;;;;;16.15;2.00;;;15.90;41.30;;;;;;5040442;28;20073;-65
2021/03/11 02:20:29;;;;;;;10.15;2.05;;;15.90;40.90;;;;;;5040183;28;20105;-65
2021/03/11 02:23:20;;;;;;;23.83;2.67;;;16.00;40.50;;;;;;5052105;28;20172;-64
2021/03/11 02:26:16;;;;;;;25.35;2.88;;;16.00;40.20;;;;;;5052980;28;20097;-62
2021/03/11 02:29:02;;;;;;;24.85;2.50;;;16.00;40.10;;;;;;5038727;28;20534;-64
2021/03/11 02:31:31;;;;;;;25.13;3.35;;;16.00;40.10;;;;;;5034643;28;20176;-66
2021/03/11 02:34:00;;;;;;;9.82;2.58;;;16.00;39.90;;;;;;5042736;28;20116;-66
2021/03/11 02:36:27;;;;;;;17.90;2.42;;;16.10;40.30;;;;;;5038643;28;20181;-64
2021/03/11 02:38:59;;;;;;;13.23;2.03;;;16.00;40.50;;;;;;5041831;28;20101;-65
2021/03/11 02:41:27;;;;;;;8.63;2.10;;;16.10;40.40;;;;;;5039198;28;20101;-65
2021/03/11 02:43:54;;;;;;;15.57;2.97;;;16.00;40.60;;;;;;5038589;28;20518;-65
2021/03/11 02:46:21;;;;;;;21.15;2.25;;;16.10;40.50;;;;;;5036667;28;20082;-64
2021/03/11 02:48:51;;;;;;;9.48;1.83;;;16.00;40.50;;;;;;5033390;28;20098;-63
2021/03/11 02:51:22;;;;;;;22.50;2.30;;;16.10;40.60;;;;;;5035818;28;20116;-63
2021/03/11 02:53:50;;;;;;;5.80;1.67;;;16.00;40.20;;;;;;5039396;28;20182;-63
2021/03/11 02:56:18;;;;;;;12.93;1.80;;;16.00;40.20;;;;;;5038972;28;20113;-64
2021/03/11 02:58:46;;;;;;;16.50;1.70;;;16.00;40.30;;;;;;5040716;28;20478;-64
2021/03/11 03:01:16;;;;;;;13.95;1.95;;;16.00;40.70;;;;;;5041149;28;20090;-63
2021/03/11 03:03:43;;;;;;;9.85;1.95;;;15.90;40.40;;;;;;5054712;28;20132;-64
2021/03/11 03:06:11;;;;;;;12.38;1.58;;;15.90;40.80;;;;;;5039134;28;20097;-63
2021/03/11 03:08:42;;;;;;;8.55;1.77;;;15.80;42.00;;;;;;5042429;28;20753;-65
2021/03/11 03:11:12;;;;;;;10.02;1.85;;;15.70;42.50;;;;;;5039912;28;20557;-63
2021/03/11 03:13:41;;;;;;;8.27;1.85;;;15.60;42.80;;;;;;5042743;28;20506;-65
2021/03/11 03:16:09;;;;;;;8.15;1.58;;;15.60;43.00;;;;;;5041914;28;20465;-63
2021/03/11 03:18:36;;;;;;;13.90;1.55;;;15.60;43.20;;;;;;5041844;28;20144;-65
2021/03/11 03:21:09;;;;;;;14.95;2.15;;;15.40;43.30;;;;;;5042384;28;20113;-64
2021/03/11 03:23:36;;;;;;;16.85;1.85;;;15.40;43.50;;;;;;5039388;28;20074;-63
2021/03/11 03:26:04;;;;;;;7.88;1.67;;;15.40;43.90;;;;;;5040093;28;20450;-63
2021/03/11 03:28:31;;;;;;;11.25;1.58;;;15.40;43.70;;;;;;5036753;28;20604;-64
2021/03/11 03:30:58;;;;;;;7.13;1.58;;;15.40;43.60;;;;;;5041961;28;20124;-63
2021/03/11 03:33:24;;;;;;;8.18;2.20;;;15.30;43.20;;;;;;5037661;28;20080;-63
2021/03/11 03:35:51;;;;;;;;;;;15.30;43.00;;;;;;5037417;28;20157;-62
2021/03/11 03:38:17;;;;;;;9.68;1.38;;;15.30;43.00;;;;;;5054456;28;20022;-65
2021/03/11 03:40:45;;;;;;;11.55;1.70;;;15.20;43.10;;;;;;5040165;28;20093;-63
2021/03/11 03:43:30;;;;;;;4.93;1.40;;;15.10;43.50;;;;;;5038709;28;20066;-63
2021/03/11 03:46:17;;;;;;;8.02;1.55;;;15.00;43.90;;;;;;5041647;28;20199;-63
2021/03/11 03:49:04;;;;;;;14.57;4.30;;;15.00;44.60;;;;;;5040173;28;20073;-63
2021/03/11 03:51:35;;;;;;;6.68;1.80;;;14.90;45.20;;;;;;5038079;28;20464;-64
2021/03/11 03:54:22;;;;;;;9.52;2.28;;;14.80;45.60;;;;;;5034957;28;20109;-63
2021/03/11 03:57:02;;;;;;;10.57;3.40;;;14.80;45.80;;;;;;5035762;28;20082;-63
2021/03/11 03:59:35;;;;;;;8.73;2.55;;;14.70;45.70;;;;;;5037643;28;20123;-64
2021/03/11 04:02:06;;;;;;;5.32;1.77;;;14.70;45.40;;;;;;5038425;28;20101;-62
2021/03/11 04:04:37;;;;;;;7.28;1.77;;;14.70;45.10;;;;;;5039449;28;20404;-64
2021/03/11 04:07:07;;;;;;;6.03;1.58;;;14.70;44.80;;;;;;5056656;28;20088;-64
2021/03/11 04:09:35;;;;;;;6.97;1.77;;;14.70;44.50;;;;;;5034821;28;20467;-64
2021/03/11 04:12:02;;;;;;;6.07;1.50;;;14.80;44.90;;;;;;5036961;28;20074;-64
2021/03/11 04:14:30;;;;;;;11.50;2.65;;;14.80;45.00;;;;;;5037132;28;20078;-63
2021/03/11 04:16:58;;;;;;;4.13;1.83;;;14.70;44.80;;;;;;5035809;28;20081;-65
2021/03/11 04:19:25;;;;;;;3.47;1.15;;;14.70;44.80;;;;;;5052168;28;20125;-68
2021/03/11 04:21:53;;;;;;;5.47;1.30;;;14.70;44.70;;;;;;5037668;28;20097;-65
2021/03/11 04:24:20;;;;;;;11.20;1.90;;;14.70;44.70;;;;;;5039489;28;20337;-64
2021/03/11 04:26:48;;;;;;;4.47;1.40;;;14.70;45.10;;;;;;5036002;28;20101;-64
2021/03/11 04:29:15;;;;;;;6.10;1.50;;;14.70;45.60;;;;;;5050975;28;20074;-64
2021/03/11 04:31:44;;;;;;;11.88;3.60;;;14.60;46.20;;;;;;5033596;28;20088;-64
2021/03/11 04:34:11;;;;;;;14.82;3.28;;;14.50;46.50;;;;;;5036180;28;20074;-64
2021/03/11 04:36:38;;;;;;;11.40;1.92;;;14.50;46.60;;;;;;5036675;28;20070;-65
2021/03/11 04:39:05;;;;;;;4.95;1.70;;;14.40;46.60;;;;;;5038920;28;20073;-65
2021/03/11 04:41:32;;;;;;;8.35;1.60;;;14.50;46.60;;;;;;5038033;28;20486;-65
2021/03/11 04:44:02;;;;;;;12.35;1.73;;;14.40;46.60;;;;;;5035510;28;20124;-65
2021/03/11 04:46:30;;;;;;;6.43;1.42;;;14.40;46.60;;;;;;5041108;28;20076;-65
2021/03/11 04:49:00;;;;;;;9.30;1.60;;;14.40;46.50;;;;;;5037137;28;20498;-64
2021/03/11 04:51:28;;;;;;;5.43;1.90;;;14.50;46.40;;;;;;5037612;28;20082;-65
2021/03/11 04:53:55;;;;;;;9.18;1.77;;;14.50;45.80;;;;;;5040854;28;20144;-64
2021/03/11 04:56:27;;;;;;;11.45;2.47;;;14.50;45.90;;;;;;5039289;28;20081;-64
2021/03/11 04:58:55;;;;;;;8.27;2.25;;;14.50;46.00;;;;;;5044620;28;20073;-64
2021/03/11 05:01:25;;;;;;;9.45;1.60;;;14.50;46.10;;;;;;5035693;28;20102;-65
2021/03/11 05:03:53;;;;;;;9.55;2.10;;;14.40;46.40;;;;;;5040442;28;20085;-66
2021/03/11 05:06:19;;;;;;;8.13;1.85;;;14.40;46.70;;;;;;5038994;28;20518;-66
2021/03/11 05:08:46;;;;;;;;;;;14.30;46.80;;;;;;5042659;28;20183;-65
2021/03/11 05:11:13;;;;;;;9.10;1.83;;;14.30;47.00;;;;;;5039754;28;19984;-64
2021/03/11 05:13:41;;;;;;;9.55;2.70;;;14.30;47.30;;;;;;5037658;28;20082;-64
2021/03/11 05:16:08;;;;;;;9.27;1.85;;;14.20;47.40;;;;;;5038498;28;20078;-63
2021/03/11 05:18:34;;;;;;;;;;;14.20;47.60;;;;;;5040383;28;20070;-64
2021/03/11 05:21:01;;;;;;;9.20;2.10;;;14.10;47.90;;;;;;5045795;28;19981;-65
2021/03/11 05:23:28;;;;;;;13.43;4.50;;;14.10;48.00;;;;;;5044494;28;20509;-63
2021/03/11 05:25:54;;;;;;;;;;;14.00;48.00;;;;;;5045013;28;20124;-63
2021/03/11 05:28:22;;;;;;;11.73;3.13;;;14.00;48.00;;;;;;5041758;28;19961;-64
2021/03/11 05:30:48;;;;;;;11.65;3.03;;;14.00;48.30;;;;;;5041040;28;20085;-63
2021/03/11 05:33:14;;;;;;;;;;;14.00;48.30;;;;;;5043984;28;20082;-63
2021/03/11 05:35:42;;;;;;;17.55;5.25;;;13.90;48.40;;;;;;5044121;28;19964;-62
2021/03/11 05:38:09;;;;;;;13.80;3.20;;;13.90;48.50;;;;;;5042095;28;20157;-63
2021/03/11 05:40:39;;;;;;;15.35;3.15;;;13.90;48.50;;;;;;5045126;28;20119;-64
2021/03/11 05:43:08;;;;;;;12.27;3.40;;;13.90;49.40;;;;;;5057056;28;20106;-63
2021/03/11 05:45:35;;;;;;;12.20;2.33;;;13.80;48.80;;;;;;5041892;28;20105;-63
2021/03/11 05:48:05;;;;;;;10.18;2.20;;;13.80;48.70;;;;;;5038564;28;20154;-62
2021/03/11 05:50:32;;;;;;;9.20;2.30;;;13.80;48.80;;;;;;5040789;28;20070;-59
2021/03/11 05:52:58;;;;;;;;;;;13.80;48.80;;;;;;5040433;28;20202;-63
2021/03/11 05:55:25;;;;;;;13.48;2.25;;;13.70;48.80;;;;;;5042083;28;19968;-61
2021/03/11 05:57:53;;;;;;;11.27;2.58;;;13.60;48.90;;;;;;5040868;28;20077;-61
2021/03/11 06:00:21;;;;;;;11.55;2.55;;;13.60;49.00;;;;;;5039255;28;20090;-63
2021/03/11 06:02:56;;;;;;;10.50;1.98;;;13.60;48.80;;;;;;5039916;28;20122;-60
2021/03/11 06:05:23;;;;;;;5.72;1.92;;;13.50;48.80;;;;;;5040167;28;20164;-63
2021/03/11 06:07:50;;;;;;;7.47;2.10;;;13.60;48.60;;;;;;5040323;28;20165;-63
2021/03/11 06:10:19;;;;;;;4.95;1.60;;;13.60;48.60;;;;;;5037125;28;20077;-62
2021/03/11 06:12:50;;;;;;;7.07;1.60;;;13.60;48.20;;;;;;5037930;28;20113;-63
2021/03/11 06:15:54;;;;;;;5.57;1.50;;;13.70;48.10;;;;;;5039791;28;20070;-63
2021/03/11 06:18:21;;;;;;;7.93;1.92;;;13.70;47.10;;;;;;5013237;28;20082;-64
2021/03/11 06:20:48;;;;;;;6.40;1.63;;;13.70;47.00;;;;;;5039834;28;20163;-64
2021/03/11 06:23:15;;;;;;;6.13;1.92;;;13.70;46.80;;;;;;5042154;28;20108;-63
2021/03/11 06:25:41;;;;;;;;;;;13.80;46.60;;;;;;5053973;28;20090;-64
2021/03/11 06:28:08;;;;;;;5.83;1.90;;;13.70;46.30;;;;;;5043355;28;20060;-62
2021/03/11 06:30:35;;;;;;;;;;;13.70;46.50;;;;;;5041153;28;20065;-62
2021/03/11 06:33:04;;;;;;;8.18;2.00;;;13.80;46.40;;;;;;5039554;28;20402;-65
2021/03/11 06:35:30;;;;;;;6.00;1.20;;;13.70;46.10;;;;;;5035181;28;20172;-64
2021/03/11 06:37:58;;;;;;;8.15;1.35;;;13.80;45.90;;;;;;5038026;28;20082;-64
2021/03/11 06:40:30;;;;;;;5.72;1.60;;;13.90;46.20;;;;;;5037551;28;20124;-65
2021/03/11 06:43:08;;;;;;;3.97;1.27;;;13.90;46.00;;;;;;5039800;28;20419;-64
2021/03/11 06:45:35;;;;;;;9.27;1.70;;;13.80;46.00;;;;;;5044238;28;20076;-64
2021/03/11 06:48:20;;;;;;;;;;;13.80;46.20;;;;;;5040266;28;20138;-64
2021/03/11 06:50:47;;;;;;;6.07;1.75;;;13.80;45.30;;;;;;5039724;28;20001;-65
2021/03/11 06:53:14;;;;;;;12.23;2.33;;;13.80;46.10;;;;;;5039936;28;20109;-64
2021/03/11 06:55:40;;;;;;;15.43;2.03;;;13.80;45.80;;;;;;5037850;28;20077;-64
2021/03/11 06:58:17;;;;;;;;;;;13.80;45.10;;;;;;5039586;28;20078;-64
2021/03/11 07:00:45;;;;;;;5.82;1.60;;;13.80;44.60;;;;;;5037377;28;20414;-63
2021/03/11 07:03:11;;;;;;;6.15;1.98;;;13.80;44.00;;;;;;5039900;28;20070;-64
2021/03/11 07:05:43;;;;;;;7.95;1.88;;;13.80;44.00;;;;;;5040874;28;20074;-64
2021/03/11 07:08:13;;;;;;;7.68;1.60;;;13.80;44.50;;;;;;5037176;28;20074;-65
2021/03/11 07:10:43;;;;;;;9.52;2.15;;;13.80;44.20;;;;;;5054562;28;20069;-65
2021/03/11 07:13:09;;;;;;;13.48;1.75;;;13.70;44.00;;;;;;5040430;28;20157;-64
2021/03/11 07:15:37;;;;;;;12.07;1.92;;;13.80;43.70;;;;;;5033885;28;20070;-64
2021/03/11 07:18:19;;;;;;;9.18;1.55;;;13.80;43.00;;;;;;5036312;28;20076;-65
2021/03/11 07:20:46;;;;;;;6.03;1.63;;;13.80;42.60;;;;;;5036399;28;20093;-64
2021/03/11 07:23:15;;;;;;;4.03;1.13;;;13.80;42.00;;;;;;5039321;28;20113;-64
2021/03/11 07:25:46;;;;;;;7.80;1.48;;;13.90;41.80;;;;;;5040921;28;20069;-65
2021/03/11 07:28:24;;;;;;;7.80;1.70;;;13.90;40.70;;;;;;5037091;28;20180;-64
2021/03/11 07:30:59;;;;;;;13.70;2.03;;;13.90;40.50;;;;;;5037092;28;20070;-64
2021/03/11 07:33:31;;;;;;;4.82;1.33;;;13.90;40.00;;;;;;5036845;28;20129;-65
2021/03/11 07:36:03;;;;;;;8.40;1.58;;;13.90;39.80;;;;;;5036557;28;20160;-65
2021/03/11 07:38:35;;;;;;;7.10;1.50;;;14.00;39.90;;;;;;5036855;28;20086;-64
2021/03/11 07:41:06;;;;;;;8.90;1.90;;;13.90;39.70;;;;;;5035457;28;20098;-64
2021/03/11 07:43:33;;;;;;;9.60;1.55;;;14.00;40.20;;;;;;5035529;28;20070;-65
2021/03/11 07:46:07;;;;;;;4.70;1.50;;;14.00;40.50;;;;;;5034269;28;20520;-64
2021/03/11 07:48:34;;;;;;;3.97;1.40;;;14.00;40.60;;;;;;5037203;28;20592;-64
2021/03/11 07:51:02;;;;;;;6.25;1.55;;;14.00;40.50;;;;;;5035116;28;20109;-64
2021/03/11 07:53:28;;;;;;;6.47;1.63;;;13.90;40.50;;;;;;5037478;28;20110;-64
2021/03/11 07:55:56;;;;;;;6.55;1.40;;;14.00;40.80;;;;;;5036482;28;20538;-64
2021/03/11 07:58:24;;;;;;;8.90;1.83;;;13.90;40.40;;;;;;5036495;28;20603;-65
2021/03/11 08:00:51;;;;;;;9.45;1.92;;;13.90;40.40;;;;;;5036365;28;20121;-65
2021/03/11 08:03:21;;;;;;;9.32;1.58;;;14.00;40.70;;;;;;5032440;28;20084;-64
2021/03/11 08:05:48;;;;;;;3.65;1.27;;;13.90;40.20;;;;;;5033902;28;20066;-63
2021/03/11 08:08:26;;;;;;;5.43;1.80;;;13.80;40.50;;;;;;5036356;28;20434;-66
2021/03/11 08:11:02;;;;;;;4.63;1.30;;;13.80;40.60;;;;;;5036871;28;20105;-65
2021/03/11 08:13:35;;;;;;;5.25;1.25;;;13.80;40.60;;;;;;5035043;28;20079;-64
2021/03/11 08:16:14;;;;;;;6.07;2.00;;;13.80;40.80;;;;;;5046656;28;20139;-64
2021/03/11 08:18:48;;;;;;;9.25;1.63;;;13.80;40.80;;;;;;5035240;28;20131;-65
2021/03/11 08:21:27;;;;;;;9.23;2.08;;;13.80;41.60;;;;;;5037631;28;20098;-65
2021/03/11 08:23:57;;;;;;;8.90;1.90;;;13.70;40.50;;;;;;5033149;28;20070;-64
2021/03/11 08:26:50;;;;;;;7.07;1.77;;;13.70;41.00;;;;;;5033490;28;20080;-64
2021/03/11 08:29:20;;;;;;;6.15;1.42;;;13.70;40.40;;;;;;5033608;28;20478;-64
2021/03/11 08:31:50;;;;;;;4.35;1.20;;;13.60;40.10;;;;;;5049069;28;20519;-65
2021/03/11 08:34:36;;;;;;;3.38;1.20;;;13.50;40.10;;;;;;5032814;28;20388;-63
2021/03/11 08:37:30;;;;;;;7.85;1.60;;;13.50;40.40;;;;;;5034181;28;20535;-64
2021/03/11 08:39:57;;;;;;;7.18;1.58;;;13.60;40.40;;;;;;5030707;28;20082;-65
2021/03/11 08:42:47;;;;;;;8.02;1.52;;;13.60;40.40;;;;;;5034012;28;20564;-65
2021/03/11 08:45:36;;;;;;;9.10;1.90;;;13.60;40.50;;;;;;5033938;28;20526;-65
2021/03/11 08:48:18;;;;;;;8.93;1.70;;;13.60;40.70;;;;;;5034938;28;20073;-64
2021/03/11 08:50:50;;;;;;;6.25;2.00;;;13.60;41.10;;;;;;5035166;28;20136;-64
2021/03/11 08:53:45;;;;;;;9.68;2.28;;;13.50;41.80;;;;;;5034484;28;20175;-63
2021/03/11 08:56:20;;;;;;;8.15;2.28;;;13.50;41.40;;;;;;5037988;28;20062;-64
2021/03/11 08:58:57;;;;;;;11.48;2.40;;;13.30;41.70;;;;;;5030825;28;20073;-65
2021/03/11 09:01:48;;;;;;;12.10;2.50;;;13.20;42.60;;;;;;5032156;28;20112;-64
2021/03/11 09:04:20;;;;;;;13.00;2.05;;;13.10;43.30;;;;;;5033919;28;20423;-64
2021/03/11 09:07:02;;;;;;;8.82;2.40;;;12.90;43.70;;;;;;5034709;28;20077;-65
2021/03/11 09:09:46;;;;;;;14.38;2.70;;;12.90;44.10;;;;;;5035874;28;20070;-64
2021/03/11 09:30:11;;;;;;;12.20;2.77;;;12.50;46.00;;;;;;5036365;28;20530;-65
2021/03/11 09:32:38;;;;;;;9.40;2.65;;;12.40;46.10;;;;;;5035646;28;20084;-64
2021/03/11 09:35:14;;;;;;;18.10;2.63;;;12.30;46.50;;;;;;5035776;28;20074;-64
2021/03/11 09:37:44;;;;;;;7.18;1.88;;;12.10;47.00;;;;;;5031749;28;20084;-64
2021/03/11 09:40:33;;;;;;;11.85;2.45;;;11.90;47.60;;;;;;5035035;28;20081;-64
2021/03/11 09:43:02;;;;;;;14.07;2.40;;;12.00;60.90;;;;;;5034305;28;20415;-65
2021/03/11 09:45:31;;;;;;;7.00;2.00;;;12.10;48.00;;;;;;5035695;28;20081;-64
2021/03/11 09:48:12;;;;;;;10.10;1.98;;;12.20;47.70;;;;;;5032172;28;20070;-64
2021/03/11 09:50:48;;;;;;;9.73;2.50;;;12.20;47.50;;;;;;5032875;28;20135;-63
2021/03/11 09:53:16;;;;;;;9.53;2.47;;;12.20;48.20;;;;;;5035276;28;20113;-62
2021/03/11 09:55:42;;;;;;;12.75;2.40;;;12.10;48.50;;;;;;5040288;28;20973;-63
2021/03/11 09:58:18;;;;;;;11.23;2.30;;;12.10;48.30;;;;;;5037783;28;20565;-62
2021/03/11 10:00:46;;;;;;;9.40;3.55;;;12.20;48.50;;;;;;5035779;28;20081;-63
2021/03/11 10:03:23;;;;;;;20.60;5.50;;;12.10;48.40;;;;;;5033119;28;20082;-63
2021/03/11 10:05:57;;;;;;;19.63;5.25;;;12.10;48.40;;;;;;5032780;28;20522;-64
2021/03/11 10:08:26;;;;;;;8.65;3.53;;;12.00;48.70;;;;;;5035530;28;20510;-64
2021/03/11 10:11:06;;;;;;;18.13;3.50;;;11.90;49.10;;;;;;5033466;28;20127;-63
2021/03/11 10:13:38;;;;;;;13.40;3.38;;;11.90;49.50;;;;;;5036134;28;20086;-63
2021/03/11 10:16:05;;;;;;;17.90;3.72;;;11.90;49.40;;;;;;5033066;28;20074;-64
2021/03/11 10:18:33;;;;;;;11.80;2.97;;;11.80;49.80;;;;;;5035033;28;20074;-64
2021/03/11 10:21:07;;;;;;;9.32;3.05;;;11.80;49.60;;;;;;5037418;28;20582;-64
2021/03/11 10:23:35;;;;;;;13.85;3.10;;;11.90;49.70;;;;;;5035489;28;20089;-64
2021/03/11 10:26:31;;;;;;;10.27;2.90;;;11.80;49.50;;;;;;5036534;28;20441;-64
2021/03/11 10:29:09;;;;;;;6.30;2.90;;;11.80;49.80;;;;;;5037868;28;20074;-64
2021/03/11 10:31:36;;;;;;;9.85;2.83;;;11.90;50.10;;;;;;5038655;28;20434;-64
2021/03/11 10:34:08;;;;;;;8.05;2.53;;;11.80;50.40;;;;;;5039744;28;20161;-64
2021/03/11 10:36:36;;;;;;;17.25;2.78;;;11.80;50.20;;;;;;5035469;28;20073;-63
2021/03/11 10:39:12;;;;;;;13.70;2.35;;;11.80;50.30;;;;;;5037668;28;20066;-63
2021/03/11 10:41:59;;;;;;;9.15;2.20;;;11.70;49.70;;;;;;5033385;28;20707;-64
2021/03/11 10:44:26;;;;;;;10.35;2.40;;;11.70;50.00;;;;;;5038225;28;20534;-63
2021/03/11 10:46:53;;;;;;;12.00;3.03;;;11.70;50.80;;;;;;5037850;28;20120;-65
2021/03/11 10:49:35;;;;;;;5.47;2.28;;;11.70;50.90;;;;;;5036814;28;20086;-63
2021/03/11 10:52:02;;;;;;;10.73;2.60;;;11.50;51.10;;;;;;5035332;28;20126;-63
2021/03/11 10:54:29;;;;;;;;;;;11.40;51.00;;;;;;5037499;28;20129;-64
2021/03/11 10:57:10;;;;;;;11.20;2.88;;;11.40;51.30;;;;;;5035117;28;20406;-64
2021/03/11 10:59:48;;;;;;;9.05;2.35;;;11.30;51.60;;;;;;5042067;28;20126;-64
2021/03/11 11:02:17;;;;;;;13.45;3.10;;;11.30;51.90;;;;;;5035073;28;20132;-64
2021/03/11 11:04:43;;;;;;;14.63;3.72;;;11.30;52.10;;;;;;5036068;28;20089;-64
2021/03/11 11:07:11;;;;;;;11.73;3.28;;;11.20;51.80;;;;;;5035225;28;20521;-64
2021/03/11 11:09:39;;;;;;;12.98;3.53;;;11.20;52.10;;;;;;5039796;28;20165;-64
2021/03/11 11:12:10;;;;;;;13.13;3.60;;;11.30;52.20;;;;;;5037774;28;20109;-64
2021/03/11 11:14:37;;;;;;;12.23;3.33;;;11.30;52.00;;;;;;5036081;28;20070;-64
2021/03/11 11:17:04;;;;;;;13.43;3.30;;;11.20;52.40;;;;;;5037623;28;20086;-63
2021/03/11 11:19:30;;;;;;;12.20;3.63;;;11.20;52.80;;;;;;5036553;28;20081;-63
2021/03/11 11:21:59;;;;;;;16.45;3.70;;;11.20;52.50;;;;;;5035467;28;20090;-64
2021/03/11 11:24:25;;;;;;;16.52;4.15;;;11.10;52.70;;;;;;5040354;28;20090;-64
2021/03/11 11:26:57;;;;;;;19.27;4.45;;;11.10;52.80;;;;;;5034870;28;20074;-64
2021/03/11 11:29:24;;;;;;;22.58;4.63;;;10.90;53.00;;;;;;5033944;28;20074;-65
2021/03/11 11:31:51;;;;;;;16.08;4.53;;;10.80;53.50;;;;;;5032729;28;20423;-65
2021/03/11 11:34:19;;;;;;;16.50;6.30;;;10.80;53.90;;;;;;5036943;28;20082;-64
2021/03/11 11:36:47;;;;;;;27.20;7.38;;;10.80;53.80;;;;;;5033467;28;20082;-63
2021/03/11 11:39:14;;;;;;;35.88;8.57;;;10.70;54.00;;;;;;5032909;28;20465;-63
2021/03/11 11:41:48;;;;;;;28.67;9.27;;;10.70;54.50;;;;;;5033450;28;20098;-64
2021/03/11 11:44:15;;;;;;;24.63;9.00;;;10.70;54.70;;;;;;5032006;28;20080;-63
2021/03/11 11:46:43;;;;;;;40.03;10.20;;;10.70;55.40;;;;;;5032378;28;20153;-64
2021/03/11 11:49:10;;;;;;;37.67;10.68;;;10.60;55.20;;;;;;5034610;28;20070;-64
2021/03/11 11:51:37;;;;;;;32.38;10.23;;;10.50;55.00;;;;;;5030832;28;20070;-64
2021/03/11 11:54:04;;;;;;;30.42;10.07;;;10.50;55.00;;;;;;5034112;28;20121;-64
2021/03/11 11:56:31;;;;;;;34.50;10.15;;;10.50;55.50;;;;;;5033151;28;20078;-65
2021/03/11 11:58:57;;;;;;;;;;;10.50;55.60;;;;;;5033690;28;20164;-64
2021/03/11 12:01:24;;;;;;;33.15;9.40;;;10.70;56.10;;;;;;5033982;28;19993;-64
2021/03/11 12:03:51;;;;;;;34.08;9.73;;;10.60;55.40;;;;;;5040009;28;20070;-64
2021/03/11 12:06:18;;;;;;;31.35;9.38;;;10.60;55.70;;;;;;5036606;28;20168;-64
2021/03/11 12:08:46;;;;;;;31.55;9.65;;;10.50;56.30;;;;;;5033537;28;20118;-64
2021/03/11 12:11:12;;;;;;;34.97;9.07;;;10.50;56.30;;;;;;5036741;28;20093;-64
2021/03/11 12:13:39;;;;;;;41.50;10.75;;;10.30;56.10;;;;;;5035119;28;20074;-64
2021/03/11 12:16:06;;;;;;;39.20;10.13;;;10.20;57.00;;;;;;5036008;28;20113;-63
2021/03/11 12:18:33;;;;;;;28.13;9.60;;;10.10;56.80;;;;;;5037371;28;20074;-64
2021/03/11 12:21:00;;;;;;;37.28;9.77;;;10.10;57.60;;;;;;5037088;28;20163;-64
2021/03/11 12:23:26;;;;;;;40.47;9.73;;;10.00;57.50;;;;;;5052243;28;20089;-64
2021/03/11 12:25:56;;;;;;;40.13;9.60;;;10.00;58.20;;;;;;5035216;28;20081;-64
2021/03/11 12:28:23;;;;;;;35.92;8.68;;;10.00;58.40;;;;;;5034269;28;20538;-64
2021/03/11 12:30:49;;;;;;;32.35;9.00;;;10.00;58.50;;;;;;5036075;28;20080;-65
2021/03/11 12:33:16;;;;;;;34.55;8.88;;;10.00;58.70;;;;;;5031944;28;20081;-64
2021/03/11 12:35:43;;;;;;;24.33;7.88;;;10.00;58.70;;;;;;5036308;28;20069;-64
2021/03/11 12:38:10;;;;;;;28.85;8.13;;;10.10;58.70;;;;;;5037261;28;20131;-64
2021/03/11 12:40:36;;;;;;;;;;;10.00;59.10;;;;;;5035734;28;20101;-64
2021/03/11 12:43:02;;;;;;;35.42;9.15;;;10.00;59.20;;;;;;5041040;28;19974;-63
2021/03/11 12:45:28;;;;;;;;;;;10.00;59.10;;;;;;5036122;28;20610;-65
2021/03/11 12:47:55;;;;;;;38.22;8.45;;;10.00;59.40;;;;;;5035782;28;19961;-64
2021/03/11 12:50:21;;;;;;;;;;;10.00;59.80;;;;;;5036953;28;20073;-64
2021/03/11 12:52:48;;;;;;;31.92;10.52;;;10.10;59.90;;;;;;5038854;28;20076;-64
2021/03/11 12:55:14;;;;;;;;;;;10.00;60.00;;;;;;5037188;28;20071;-64
2021/03/11 12:57:41;;;;;;;47.85;13.38;;;10.00;60.20;;;;;;5050092;28;20422;-64
2021/03/11 13:00:10;;;;;;;44.83;13.25;;;9.90;60.20;;;;;;5032958;28;20078;-64
2021/03/11 13:02:36;;;;;;;35.25;11.90;;;9.90;60.40;;;;;;5033043;28;20101;-62
2021/03/11 13:05:04;;;;;;;;;;;9.90;61.00;;;;;;5033558;28;20487;-63
2021/03/11 13:07:31;;;;;;;50.60;13.85;;;9.80;61.50;;;;;;5041844;28;20337;-64
2021/03/11 13:09:59;;;;;;;45.38;13.73;;;9.80;61.70;;;;;;5037465;28;20069;-64
2021/03/11 13:12:27;;;;;;;46.22;14.30;;;9.70;61.90;;;;;;5036228;28;20092;-64
2021/03/11 13:14:53;;;;;;;48.63;14.18;;;9.80;62.40;;;;;;5038413;28;20101;-64
2021/03/11 13:17:21;;;;;;;52.42;15.75;;;9.80;62.30;;;;;;5036902;28;20101;-63
2021/03/11 13:19:47;;;;;;;58.85;14.88;;;9.70;62.30;;;;;;5037722;28;20077;-65
2021/03/11 13:22:13;;;;;;;;;;;9.70;62.50;;;;;;5035850;28;20098;-64